sensor_id;sensor_type;location;lat;lon;timestamp;pressure;altitude;pressure_sealevel;temperature;humidity
46574;BME280;32299;53.366;-1.544;2022-09-01T00:00:11;99894.32;;;18.44;46.13
46574;BME280;32299;53.366;-1.544;2022-09-01T00:02:38;99889.30;;;18.39;46.09
46574;BME280;32299;53.366;-1.544;2022-09-01T00:05:06;99888.33;;;18.50;45.73
46574;BME280;32299;53.366;-1.544;2022-09-01T00:07:33;99884.48;;;18.31;46.60
46574;BME280;32299;53.366;-1.544;2022-09-01T00:10:04;99887.76;;;17.87;47.46
46574;BME280;32299;53.366;-1.544;2022-09-01T00:12:32;99883.66;;;18.42;46.37
46574;BME280;32299;53.366;-1.544;2022-09-01T00:14:59;99886.86;;;17.99;47.64
46574;BME280;32299;53.366;-1.544;2022-09-01T00:17:26;99882.51;;;17.95;47.91
46574;BME280;32299;53.366;-1.544;2022-09-01T00:19:54;99883.12;;;18.17;46.30
46574;BME280;32299;53.366;-1.544;2022-09-01T00:22:21;99880.22;;;18.28;45.39
46574;BME280;32299;53.366;-1.544;2022-09-01T00:24:48;99881.71;;;18.42;47.19
46574;BME280;32299;53.366;-1.544;2022-09-01T00:27:16;99878.20;;;17.93;48.08
46574;BME280;32299;53.366;-1.544;2022-09-01T00:29:49;99876.24;;;17.76;48.59
46574;BME280;32299;53.366;-1.544;2022-09-01T00:32:16;99875.13;;;17.97;48.25
46574;BME280;32299;53.366;-1.544;2022-09-01T00:34:43;99872.67;;;17.61;48.50
46574;BME280;32299;53.366;-1.544;2022-09-01T00:37:11;99871.67;;;17.76;48.13
46574;BME280;32299;53.366;-1.544;2022-09-01T00:39:38;99871.17;;;17.47;49.77
46574;BME280;32299;53.366;-1.544;2022-09-01T00:42:05;99870.64;;;17.77;47.69
46574;BME280;32299;53.366;-1.544;2022-09-01T00:44:33;99872.65;;;17.57;49.14
46574;BME280;32299;53.366;-1.544;2022-09-01T00:47:01;99870.67;;;17.92;47.71
46574;BME280;32299;53.366;-1.544;2022-09-01T00:49:31;99868.68;;;18.30;47.42
46574;BME280;32299;53.366;-1.544;2022-09-01T00:52:02;99867.08;;;17.62;47.98
46574;BME280;32299;53.366;-1.544;2022-09-01T00:54:33;99868.01;;;18.24;46.28
46574;BME280;32299;53.366;-1.544;2022-09-01T00:57:03;99867.90;;;18.25;45.98
46574;BME280;32299;53.366;-1.544;2022-09-01T00:59:30;99866.04;;;18.48;46.01
46574;BME280;32299;53.366;-1.544;2022-09-01T01:01:58;99866.19;;;17.83;47.17
46574;BME280;32299;53.366;-1.544;2022-09-01T01:04:26;99858.63;;;18.12;46.55
46574;BME280;32299;53.366;-1.544;2022-09-01T01:06:55;99861.05;;;17.70;48.25
46574;BME280;32299;53.366;-1.544;2022-09-01T01:09:26;99858.04;;;17.97;46.77
46574;BME280;32299;53.366;-1.544;2022-09-01T01:11:54;99852.93;;;18.22;45.28
46574;BME280;32299;53.366;-1.544;2022-09-01T01:14:22;99849.43;;;17.65;47.81
46574;BME280;32299;53.366;-1.544;2022-09-01T01:16:49;99853.36;;;17.03;48.10
46574;BME280;32299;53.366;-1.544;2022-09-01T01:19:22;99850.13;;;17.68;47.79
46574;BME280;32299;53.366;-1.544;2022-09-01T01:21:50;99851.82;;;17.88;47.56
46574;BME280;32299;53.366;-1.544;2022-09-01T01:24:22;99847.47;;;16.91;51.41
46574;BME280;32299;53.366;-1.544;2022-09-01T01:26:49;99846.10;;;17.45;49.36
46574;BME280;32299;53.366;-1.544;2022-09-01T01:29:17;99845.51;;;17.42;49.69
46574;BME280;32299;53.366;-1.544;2022-09-01T01:31:45;99841.42;;;16.73;51.17
46574;BME280;32299;53.366;-1.544;2022-09-01T01:34:12;99839.43;;;17.41;48.38
46574;BME280;32299;53.366;-1.544;2022-09-01T01:36:39;99838.24;;;17.34;49.18
46574;BME280;32299;53.366;-1.544;2022-09-01T01:39:08;99839.48;;;17.61;47.21
46574;BME280;32299;53.366;-1.544;2022-09-01T01:41:37;99834.28;;;17.82;47.26
46574;BME280;32299;53.366;-1.544;2022-09-01T01:44:05;99836.33;;;18.15;46.23
46574;BME280;32299;53.366;-1.544;2022-09-01T01:46:34;99836.87;;;17.79;47.38
46574;BME280;32299;53.366;-1.544;2022-09-01T01:49:03;99834.87;;;17.69;47.44
46574;BME280;32299;53.366;-1.544;2022-09-01T01:51:30;99833.42;;;17.48;48.07
46574;BME280;32299;53.366;-1.544;2022-09-01T01:53:58;99829.00;;;17.94;47.51
46574;BME280;32299;53.366;-1.544;2022-09-01T01:56:25;99830.15;;;17.93;46.43
46574;BME280;32299;53.366;-1.544;2022-09-01T01:58:54;99832.00;;;17.30;48.87
46574;BME280;32299;53.366;-1.544;2022-09-01T02:01:23;99831.41;;;17.12;48.23
46574;BME280;32299;53.366;-1.544;2022-09-01T02:03:51;99826.32;;;17.59;48.11
46574;BME280;32299;53.366;-1.544;2022-09-01T02:06:19;99824.83;;;17.21;49.49
46574;BME280;32299;53.366;-1.544;2022-09-01T02:08:46;99827.71;;;16.67;50.91
46574;BME280;32299;53.366;-1.544;2022-09-01T02:11:14;99826.30;;;17.40;49.12
46574;BME280;32299;53.366;-1.544;2022-09-01T02:13:41;99824.06;;;17.87;47.22
46574;BME280;32299;53.366;-1.544;2022-09-01T02:16:09;99824.63;;;17.72;47.89
46574;BME280;32299;53.366;-1.544;2022-09-01T02:18:41;99831.86;;;17.04;48.95
46574;BME280;32299;53.366;-1.544;2022-09-01T02:21:09;99827.01;;;17.49;48.02
46574;BME280;32299;53.366;-1.544;2022-09-01T02:23:38;99829.70;;;17.77;47.90
46574;BME280;32299;53.366;-1.544;2022-09-01T02:26:11;99821.57;;;16.98;49.34
46574;BME280;32299;53.366;-1.544;2022-09-01T02:28:39;99822.44;;;17.34;47.77
46574;BME280;32299;53.366;-1.544;2022-09-01T02:31:07;99820.91;;;17.15;48.19
46574;BME280;32299;53.366;-1.544;2022-09-01T02:33:36;99818.03;;;17.38;48.24
46574;BME280;32299;53.366;-1.544;2022-09-01T02:36:07;99821.10;;;17.25;48.34
46574;BME280;32299;53.366;-1.544;2022-09-01T02:38:35;99815.18;;;17.56;47.12
46574;BME280;32299;53.366;-1.544;2022-09-01T02:41:03;99813.02;;;17.40;47.88
46574;BME280;32299;53.366;-1.544;2022-09-01T02:43:30;99812.06;;;17.35;47.83
46574;BME280;32299;53.366;-1.544;2022-09-01T02:45:59;99813.94;;;17.29;47.79
46574;BME280;32299;53.366;-1.544;2022-09-01T02:48:29;99813.37;;;16.82;48.27
46574;BME280;32299;53.366;-1.544;2022-09-01T02:50:56;99813.61;;;17.47;48.74
46574;BME280;32299;53.366;-1.544;2022-09-01T02:53:24;99812.03;;;17.12;49.92
46574;BME280;32299;53.366;-1.544;2022-09-01T02:55:51;99810.35;;;17.07;49.18
46574;BME280;32299;53.366;-1.544;2022-09-01T02:58:19;99810.19;;;17.04;49.62
46574;BME280;32299;53.366;-1.544;2022-09-01T03:00:51;99807.73;;;17.39;47.97
46574;BME280;32299;53.366;-1.544;2022-09-01T03:03:18;99805.41;;;17.09;48.76
46574;BME280;32299;53.366;-1.544;2022-09-01T03:05:46;99804.07;;;16.99;49.06
46574;BME280;32299;53.366;-1.544;2022-09-01T03:08:13;99799.93;;;17.74;47.25
46574;BME280;32299;53.366;-1.544;2022-09-01T03:10:42;99795.57;;;17.24;49.71
46574;BME280;32299;53.366;-1.544;2022-09-01T03:13:13;99796.28;;;17.53;47.27
46574;BME280;32299;53.366;-1.544;2022-09-01T03:15:41;99797.08;;;17.55;47.29
46574;BME280;32299;53.366;-1.544;2022-09-01T03:18:10;99795.32;;;17.70;47.37
46574;BME280;32299;53.366;-1.544;2022-09-01T03:20:40;99794.86;;;17.79;46.85
46574;BME280;32299;53.366;-1.544;2022-09-01T03:23:15;99796.26;;;17.68;47.50
46574;BME280;32299;53.366;-1.544;2022-09-01T03:25:43;99794.37;;;16.62;49.82
46574;BME280;32299;53.366;-1.544;2022-09-01T03:28:12;99790.19;;;17.52;47.93
46574;BME280;32299;53.366;-1.544;2022-09-01T03:30:45;99790.44;;;17.48;47.76
46574;BME280;32299;53.366;-1.544;2022-09-01T03:33:13;99788.01;;;17.17;48.58
46574;BME280;32299;53.366;-1.544;2022-09-01T03:35:40;99784.50;;;17.46;46.98
46574;BME280;32299;53.366;-1.544;2022-09-01T03:38:08;99785.67;;;16.91;49.51
46574;BME280;32299;53.366;-1.544;2022-09-01T03:40:35;99784.24;;;17.05;48.05
46574;BME280;32299;53.366;-1.544;2022-09-01T03:43:05;99787.75;;;17.16;48.04
46574;BME280;32299;53.366;-1.544;2022-09-01T03:45:33;99784.27;;;17.32;47.72
46574;BME280;32299;53.366;-1.544;2022-09-01T03:48:01;99786.93;;;17.50;46.73
46574;BME280;32299;53.366;-1.544;2022-09-01T03:50:28;99786.24;;;17.77;47.25
46574;BME280;32299;53.366;-1.544;2022-09-01T03:52:58;99784.06;;;17.55;47.44
46574;BME280;32299;53.366;-1.544;2022-09-01T03:55:28;99778.81;;;17.47;47.14
46574;BME280;32299;53.366;-1.544;2022-09-01T03:57:57;99777.81;;;17.45;47.05
46574;BME280;32299;53.366;-1.544;2022-09-01T04:00:27;99775.17;;;17.53;46.68
46574;BME280;32299;53.366;-1.544;2022-09-01T04:02:57;99773.34;;;17.48;46.85
46574;BME280;32299;53.366;-1.544;2022-09-01T04:05:26;99774.20;;;17.57;46.90
46574;BME280;32299;53.366;-1.544;2022-09-01T04:07:54;99772.44;;;17.42;48.24
46574;BME280;32299;53.366;-1.544;2022-09-01T04:10:23;99772.48;;;17.50;47.43
46574;BME280;32299;53.366;-1.544;2022-09-01T04:12:51;99771.78;;;17.37;48.13
46574;BME280;32299;53.366;-1.544;2022-09-01T04:15:19;99770.80;;;16.30;50.62
46574;BME280;32299;53.366;-1.544;2022-09-01T04:17:46;99770.86;;;16.95;48.95
46574;BME280;32299;53.366;-1.544;2022-09-01T04:20:14;99768.85;;;17.14;49.01
46574;BME280;32299;53.366;-1.544;2022-09-01T04:22:41;99765.09;;;17.53;47.47
46574;BME280;32299;53.366;-1.544;2022-09-01T04:25:08;99766.54;;;17.49;47.42
46574;BME280;32299;53.366;-1.544;2022-09-01T04:27:36;99761.01;;;17.26;48.51
46574;BME280;32299;53.366;-1.544;2022-09-01T04:30:03;99762.10;;;17.52;47.04
46574;BME280;32299;53.366;-1.544;2022-09-01T04:32:30;99756.51;;;17.13;47.66
46574;BME280;32299;53.366;-1.544;2022-09-01T04:34:58;99759.45;;;16.49;49.72
46574;BME280;32299;53.366;-1.544;2022-09-01T04:37:24;99751.77;;;17.32;49.89
46574;BME280;32299;53.366;-1.544;2022-09-01T04:39:53;99755.20;;;17.00;49.22
46574;BME280;32299;53.366;-1.544;2022-09-01T04:42:23;99756.02;;;16.99;49.80
46574;BME280;32299;53.366;-1.544;2022-09-01T04:44:51;99750.69;;;17.22;49.09
46574;BME280;32299;53.366;-1.544;2022-09-01T04:47:19;99749.79;;;17.06;49.48
46574;BME280;32299;53.366;-1.544;2022-09-01T04:49:47;99749.33;;;17.14;49.14
46574;BME280;32299;53.366;-1.544;2022-09-01T04:52:14;99751.14;;;17.46;47.98
46574;BME280;32299;53.366;-1.544;2022-09-01T04:54:42;99748.13;;;17.54;48.06
46574;BME280;32299;53.366;-1.544;2022-09-01T04:57:08;99748.82;;;16.71;48.93
46574;BME280;32299;53.366;-1.544;2022-09-01T04:59:36;99752.61;;;17.46;48.54
46574;BME280;32299;53.366;-1.544;2022-09-01T05:02:04;99750.51;;;17.16;49.04
46574;BME280;32299;53.366;-1.544;2022-09-01T05:04:32;99751.59;;;16.74;51.08
46574;BME280;32299;53.366;-1.544;2022-09-01T05:07:03;99749.06;;;16.61;51.28
46574;BME280;32299;53.366;-1.544;2022-09-01T05:09:33;99746.97;;;17.12;49.08
46574;BME280;32299;53.366;-1.544;2022-09-01T05:12:01;99749.57;;;17.57;48.70
46574;BME280;32299;53.366;-1.544;2022-09-01T05:14:28;99747.61;;;17.15;48.97
46574;BME280;32299;53.366;-1.544;2022-09-01T05:16:57;99749.88;;;17.03;48.90
46574;BME280;32299;53.366;-1.544;2022-09-01T05:19:24;99750.47;;;17.13;49.79
46574;BME280;32299;53.366;-1.544;2022-09-01T05:21:51;99749.57;;;17.54;48.08
46574;BME280;32299;53.366;-1.544;2022-09-01T05:24:19;99742.90;;;17.55;47.39
46574;BME280;32299;53.366;-1.544;2022-09-01T05:26:47;99747.34;;;17.77;47.79
46574;BME280;32299;53.366;-1.544;2022-09-01T05:29:15;99748.44;;;17.52;47.49
46574;BME280;32299;53.366;-1.544;2022-09-01T05:31:43;99745.50;;;17.21;49.94
46574;BME280;32299;53.366;-1.544;2022-09-01T05:34:11;99747.25;;;17.26;48.29
46574;BME280;32299;53.366;-1.544;2022-09-01T05:36:43;99743.42;;;17.17;49.37
46574;BME280;32299;53.366;-1.544;2022-09-01T05:39:11;99745.19;;;17.67;48.19
46574;BME280;32299;53.366;-1.544;2022-09-01T05:41:38;99743.96;;;17.01;48.74
46574;BME280;32299;53.366;-1.544;2022-09-01T05:44:07;99739.17;;;16.55;51.60
46574;BME280;32299;53.366;-1.544;2022-09-01T05:46:37;99738.87;;;17.24;49.37
46574;BME280;32299;53.366;-1.544;2022-09-01T05:49:05;99737.02;;;17.34;47.68
46574;BME280;32299;53.366;-1.544;2022-09-01T05:51:34;99737.09;;;17.35;48.96
46574;BME280;32299;53.366;-1.544;2022-09-01T05:54:02;99734.41;;;17.14;49.69
46574;BME280;32299;53.366;-1.544;2022-09-01T05:56:30;99734.97;;;17.47;47.86
46574;BME280;32299;53.366;-1.544;2022-09-01T05:59:00;99734.92;;;17.53;49.20
46574;BME280;32299;53.366;-1.544;2022-09-01T06:01:28;99736.27;;;17.46;49.06
46574;BME280;32299;53.366;-1.544;2022-09-01T06:03:56;99738.21;;;17.28;49.04
46574;BME280;32299;53.366;-1.544;2022-09-01T06:06:26;99738.41;;;17.56;48.64
46574;BME280;32299;53.366;-1.544;2022-09-01T06:08:54;99741.86;;;17.63;48.27
46574;BME280;32299;53.366;-1.544;2022-09-01T06:11:21;99740.19;;;17.37;48.50
46574;BME280;32299;53.366;-1.544;2022-09-01T06:13:49;99745.48;;;16.97;49.68
46574;BME280;32299;53.366;-1.544;2022-09-01T06:16:16;99747.88;;;17.10;50.40
46574;BME280;32299;53.366;-1.544;2022-09-01T06:18:44;99743.64;;;17.31;49.27
46574;BME280;32299;53.366;-1.544;2022-09-01T06:21:11;99745.31;;;17.52;48.59
46574;BME280;32299;53.366;-1.544;2022-09-01T06:23:39;99750.89;;;17.62;48.02
46574;BME280;32299;53.366;-1.544;2022-09-01T06:26:07;99750.10;;;17.01;49.84
46574;BME280;32299;53.366;-1.544;2022-09-01T06:28:34;99748.75;;;17.39;48.94
46574;BME280;32299;53.366;-1.544;2022-09-01T06:31:05;99748.69;;;17.08;48.77
46574;BME280;32299;53.366;-1.544;2022-09-01T06:33:33;99748.77;;;17.43;49.12
46574;BME280;32299;53.366;-1.544;2022-09-01T06:36:00;99748.80;;;17.23;48.77
46574;BME280;32299;53.366;-1.544;2022-09-01T06:38:28;99749.29;;;17.67;48.26
46574;BME280;32299;53.366;-1.544;2022-09-01T06:40:59;99743.33;;;17.76;48.28
46574;BME280;32299;53.366;-1.544;2022-09-01T06:43:27;99750.02;;;17.40;48.83
46574;BME280;32299;53.366;-1.544;2022-09-01T06:45:54;99746.85;;;17.27;49.70
46574;BME280;32299;53.366;-1.544;2022-09-01T06:48:21;99748.93;;;17.42;48.15
46574;BME280;32299;53.366;-1.544;2022-09-01T06:50:48;99747.58;;;17.17;50.16
46574;BME280;32299;53.366;-1.544;2022-09-01T06:53:16;99744.29;;;17.79;47.69
46574;BME280;32299;53.366;-1.544;2022-09-01T06:55:47;99743.79;;;18.36;47.01
46574;BME280;32299;53.366;-1.544;2022-09-01T06:58:15;99748.57;;;16.47;51.11
46574;BME280;32299;53.366;-1.544;2022-09-01T07:00:42;99746.91;;;17.59;48.79
46574;BME280;32299;53.366;-1.544;2022-09-01T07:03:12;99744.96;;;17.61;48.51
46574;BME280;32299;53.366;-1.544;2022-09-01T07:05:40;99745.55;;;17.88;48.02
46574;BME280;32299;53.366;-1.544;2022-09-01T07:08:10;99748.47;;;18.42;47.01
46574;BME280;32299;53.366;-1.544;2022-09-01T07:10:41;99751.92;;;17.49;48.76
46574;BME280;32299;53.366;-1.544;2022-09-01T07:13:09;99748.78;;;17.54;47.98
46574;BME280;32299;53.366;-1.544;2022-09-01T07:15:38;99748.62;;;17.90;47.26
46574;BME280;32299;53.366;-1.544;2022-09-01T07:18:05;99747.05;;;18.09;48.02
46574;BME280;32299;53.366;-1.544;2022-09-01T07:20:32;99748.82;;;18.07;47.08
46574;BME280;32299;53.366;-1.544;2022-09-01T07:23:00;99746.59;;;18.68;46.33
46574;BME280;32299;53.366;-1.544;2022-09-01T07:25:27;99749.57;;;18.39;46.78
46574;BME280;32299;53.366;-1.544;2022-09-01T07:27:54;99749.11;;;18.07;47.63
46574;BME280;32299;53.366;-1.544;2022-09-01T07:30:22;99750.84;;;18.11;46.85
46574;BME280;32299;53.366;-1.544;2022-09-01T07:32:49;99750.48;;;18.79;45.76
46574;BME280;32299;53.366;-1.544;2022-09-01T07:35:19;99751.66;;;18.41;46.19
46574;BME280;32299;53.366;-1.544;2022-09-01T07:37:47;99752.37;;;17.96;46.86
46574;BME280;32299;53.366;-1.544;2022-09-01T07:40:16;99747.44;;;18.77;46.35
46574;BME280;32299;53.366;-1.544;2022-09-01T07:42:44;99750.66;;;18.01;46.82
46574;BME280;32299;53.366;-1.544;2022-09-01T07:45:12;99749.14;;;18.12;47.18
46574;BME280;32299;53.366;-1.544;2022-09-01T07:47:40;99749.14;;;18.25;47.16
46574;BME280;32299;53.366;-1.544;2022-09-01T07:50:10;99749.02;;;18.56;45.81
46574;BME280;32299;53.366;-1.544;2022-09-01T07:52:38;99747.50;;;18.75;45.94
46574;BME280;32299;53.366;-1.544;2022-09-01T07:55:06;99749.02;;;18.45;46.24
46574;BME280;32299;53.366;-1.544;2022-09-01T07:57:33;99746.57;;;17.32;49.31
46574;BME280;32299;53.366;-1.544;2022-09-01T08:00:00;99746.46;;;18.25;46.47
46574;BME280;32299;53.366;-1.544;2022-09-01T08:02:27;99741.48;;;17.66;47.32
46574;BME280;32299;53.366;-1.544;2022-09-01T08:04:55;99740.92;;;18.03;46.43
46574;BME280;32299;53.366;-1.544;2022-09-01T08:07:21;99738.76;;;18.45;44.73
46574;BME280;32299;53.366;-1.544;2022-09-01T08:09:48;99741.09;;;18.64;45.36
46574;BME280;32299;53.366;-1.544;2022-09-01T08:12:16;99737.98;;;17.02;47.15
46574;BME280;32299;53.366;-1.544;2022-09-01T08:14:43;99737.60;;;17.86;45.84
46574;BME280;32299;53.366;-1.544;2022-09-01T08:17:10;99738.55;;;18.41;44.62
46574;BME280;32299;53.366;-1.544;2022-09-01T08:19:37;99733.76;;;18.36;44.99
46574;BME280;32299;53.366;-1.544;2022-09-01T08:22:04;99735.92;;;17.16;48.79
46574;BME280;32299;53.366;-1.544;2022-09-01T08:24:31;99731.38;;;17.74;46.10
46574;BME280;32299;53.366;-1.544;2022-09-01T08:26:58;99731.43;;;18.82;44.79
46574;BME280;32299;53.366;-1.544;2022-09-01T08:29:26;99730.17;;;18.67;44.29
46574;BME280;32299;53.366;-1.544;2022-09-01T08:31:52;99729.29;;;18.87;44.27
46574;BME280;32299;53.366;-1.544;2022-09-01T08:34:20;99736.33;;;18.91;44.43
46574;BME280;32299;53.366;-1.544;2022-09-01T08:36:46;99736.44;;;18.38;44.50
46574;BME280;32299;53.366;-1.544;2022-09-01T08:39:13;99734.64;;;18.38;43.64
46574;BME280;32299;53.366;-1.544;2022-09-01T08:41:42;99732.96;;;18.93;42.86
46574;BME280;32299;53.366;-1.544;2022-09-01T08:44:18;99732.88;;;18.61;42.08
46574;BME280;32299;53.366;-1.544;2022-09-01T08:46:45;99741.06;;;18.65;42.78
46574;BME280;32299;53.366;-1.544;2022-09-01T08:49:18;99740.51;;;18.41;42.81
46574;BME280;32299;53.366;-1.544;2022-09-01T08:51:48;99739.69;;;19.16;41.63
46574;BME280;32299;53.366;-1.544;2022-09-01T08:54:22;99735.52;;;19.27;41.67
46574;BME280;32299;53.366;-1.544;2022-09-01T08:56:54;99737.08;;;18.79;41.49
46574;BME280;32299;53.366;-1.544;2022-09-01T08:59:23;99728.80;;;18.71;42.12
46574;BME280;32299;53.366;-1.544;2022-09-01T09:01:58;99732.69;;;18.53;42.80
46574;BME280;32299;53.366;-1.544;2022-09-01T09:04:44;99730.90;;;19.17;41.54
46574;BME280;32299;53.366;-1.544;2022-09-01T09:07:23;99728.40;;;17.08;43.94
46574;BME280;32299;53.366;-1.544;2022-09-01T09:09:57;99728.60;;;18.65;42.04
46574;BME280;32299;53.366;-1.544;2022-09-01T09:12:35;99726.22;;;18.96;41.32
46574;BME280;32299;53.366;-1.544;2022-09-01T09:15:13;99724.45;;;18.78;41.90
46574;BME280;32299;53.366;-1.544;2022-09-01T09:17:46;99720.85;;;18.57;41.67
46574;BME280;32299;53.366;-1.544;2022-09-01T09:20:15;99718.13;;;19.35;41.79
46574;BME280;32299;53.366;-1.544;2022-09-01T09:22:44;99715.10;;;19.34;40.55
46574;BME280;32299;53.366;-1.544;2022-09-01T09:25:15;99712.40;;;18.14;41.21
46574;BME280;32299;53.366;-1.544;2022-09-01T09:27:44;99704.32;;;18.59;41.98
46574;BME280;32299;53.366;-1.544;2022-09-01T09:30:14;99706.55;;;18.63;41.19
46574;BME280;32299;53.366;-1.544;2022-09-01T09:32:48;99696.68;;;19.11;38.41
46574;BME280;32299;53.366;-1.544;2022-09-01T09:35:23;99708.31;;;18.44;39.79
46574;BME280;32299;53.366;-1.544;2022-09-01T09:37:51;99693.73;;;19.72;38.70
46574;BME280;32299;53.366;-1.544;2022-09-01T09:40:21;99695.20;;;20.36;37.93
46574;BME280;32299;53.366;-1.544;2022-09-01T09:43:06;99687.22;;;20.21;37.44
46574;BME280;32299;53.366;-1.544;2022-09-01T09:45:35;99694.10;;;19.30;38.94
46574;BME280;32299;53.366;-1.544;2022-09-01T09:48:07;99694.72;;;17.06;42.47
46574;BME280;32299;53.366;-1.544;2022-09-01T09:50:36;99694.79;;;19.44;40.14
46574;BME280;32299;53.366;-1.544;2022-09-01T09:53:15;99691.61;;;19.60;39.22
46574;BME280;32299;53.366;-1.544;2022-09-01T09:56:00;99689.62;;;19.88;38.35
46574;BME280;32299;53.366;-1.544;2022-09-01T09:58:35;99682.84;;;20.53;38.19
46574;BME280;32299;53.366;-1.544;2022-09-01T10:01:08;99682.38;;;20.69;38.10
46574;BME280;32299;53.366;-1.544;2022-09-01T10:03:40;99684.55;;;20.65;38.54
46574;BME280;32299;53.366;-1.544;2022-09-01T10:06:11;99682.87;;;21.37;37.25
46574;BME280;32299;53.366;-1.544;2022-09-01T10:08:41;99681.16;;;20.05;36.88
46574;BME280;32299;53.366;-1.544;2022-09-01T10:11:11;99680.69;;;19.49;37.77
46574;BME280;32299;53.366;-1.544;2022-09-01T11:24:48;99613.88;;;21.91;33.32
46574;BME280;32299;53.366;-1.544;2022-09-01T11:27:57;99615.56;;;21.65;33.81
46574;BME280;32299;53.366;-1.544;2022-09-01T11:30:33;99600.00;;;22.53;31.73
46574;BME280;32299;53.366;-1.544;2022-09-01T11:33:07;99616.13;;;21.11;31.94
46574;BME280;32299;53.366;-1.544;2022-09-01T11:35:37;99606.64;;;22.82;30.89
46574;BME280;32299;53.366;-1.544;2022-09-01T11:38:05;99595.51;;;23.98;27.91
46574;BME280;32299;53.366;-1.544;2022-09-01T11:40:34;99593.17;;;24.67;30.07
46574;BME280;32299;53.366;-1.544;2022-09-01T11:43:05;99594.02;;;23.74;29.24
46574;BME280;32299;53.366;-1.544;2022-09-01T11:45:38;99588.51;;;24.75;27.60
46574;BME280;32299;53.366;-1.544;2022-09-01T11:48:12;99590.05;;;25.74;28.18
46574;BME280;32299;53.366;-1.544;2022-09-01T11:50:41;99591.91;;;26.53;26.54
46574;BME280;32299;53.366;-1.544;2022-09-01T11:53:12;99588.51;;;26.75;26.93
46574;BME280;32299;53.366;-1.544;2022-09-01T11:55:41;99589.07;;;24.97;26.75
46574;BME280;32299;53.366;-1.544;2022-09-01T11:58:11;99585.22;;;25.71;28.90
46574;BME280;32299;53.366;-1.544;2022-09-01T12:00:40;99586.84;;;26.22;27.36
46574;BME280;32299;53.366;-1.544;2022-09-01T12:03:19;99581.13;;;26.35;27.33
46574;BME280;32299;53.366;-1.544;2022-09-01T12:05:51;99580.63;;;24.49;27.83
46574;BME280;32299;53.366;-1.544;2022-09-01T12:08:20;99583.48;;;25.78;28.89
46574;BME280;32299;53.366;-1.544;2022-09-01T12:10:47;99579.87;;;25.08;28.70
46574;BME280;32299;53.366;-1.544;2022-09-01T12:13:19;99574.70;;;27.71;27.10
46574;BME280;32299;53.366;-1.544;2022-09-01T12:15:53;99573.27;;;27.60;26.05
46574;BME280;32299;53.366;-1.544;2022-09-01T12:18:23;99577.47;;;27.45;26.43
46574;BME280;32299;53.366;-1.544;2022-09-01T12:20:52;99579.80;;;25.46;25.89
46574;BME280;32299;53.366;-1.544;2022-09-01T12:23:24;99578.56;;;27.14;26.08
46574;BME280;32299;53.366;-1.544;2022-09-01T12:25:54;99578.23;;;26.60;26.55
46574;BME280;32299;53.366;-1.544;2022-09-01T12:28:23;99578.30;;;26.24;26.86
46574;BME280;32299;53.366;-1.544;2022-09-01T12:30:51;99579.14;;;24.69;27.83
46574;BME280;32299;53.366;-1.544;2022-09-01T12:33:20;99567.96;;;26.28;27.75
46574;BME280;32299;53.366;-1.544;2022-09-01T12:35:48;99570.60;;;26.81;25.56
46574;BME280;32299;53.366;-1.544;2022-09-01T12:38:22;99568.31;;;27.42;25.76
46574;BME280;32299;53.366;-1.544;2022-09-01T12:40:51;99556.61;;;27.41;24.84
46574;BME280;32299;53.366;-1.544;2022-09-01T12:43:29;99568.81;;;27.32;26.29
46574;BME280;32299;53.366;-1.544;2022-09-01T12:45:57;99568.20;;;26.57;25.48
46574;BME280;32299;53.366;-1.544;2022-09-01T12:48:26;99563.67;;;27.15;26.14
46574;BME280;32299;53.366;-1.544;2022-09-01T12:50:55;99566.91;;;26.71;27.04
46574;BME280;32299;53.366;-1.544;2022-09-01T12:53:28;99561.10;;;25.97;26.99
46574;BME280;32299;53.366;-1.544;2022-09-01T12:56:01;99559.37;;;25.45;25.97
46574;BME280;32299;53.366;-1.544;2022-09-01T12:58:30;99552.55;;;26.22;27.82
46574;BME280;32299;53.366;-1.544;2022-09-01T13:01:00;99552.99;;;26.77;27.68
46574;BME280;32299;53.366;-1.544;2022-09-01T13:03:29;99549.66;;;26.44;28.23
46574;BME280;32299;53.366;-1.544;2022-09-01T13:05:57;99547.03;;;25.47;27.66
46574;BME280;32299;53.366;-1.544;2022-09-01T13:08:27;99546.58;;;26.95;27.16
46574;BME280;32299;53.366;-1.544;2022-09-01T13:10:58;99542.27;;;27.97;26.98
46574;BME280;32299;53.366;-1.544;2022-09-01T13:13:27;99537.64;;;28.55;26.39
46574;BME280;32299;53.366;-1.544;2022-09-01T13:15:56;99532.85;;;29.13;24.35
46574;BME280;32299;53.366;-1.544;2022-09-01T13:18:25;99531.27;;;29.15;24.58
46574;BME280;32299;53.366;-1.544;2022-09-01T13:20:53;99527.64;;;27.49;23.13
46574;BME280;32299;53.366;-1.544;2022-09-01T13:23:22;99525.07;;;28.17;25.28
46574;BME280;32299;53.366;-1.544;2022-09-01T13:25:49;99522.16;;;27.94;26.42
46574;BME280;32299;53.366;-1.544;2022-09-01T13:28:17;99515.67;;;28.20;23.83
46574;BME280;32299;53.366;-1.544;2022-09-01T13:30:48;99512.02;;;28.84;24.30
46574;BME280;32299;53.366;-1.544;2022-09-01T13:33:16;99512.73;;;27.11;22.14
46574;BME280;32299;53.366;-1.544;2022-09-01T13:35:43;99505.98;;;29.36;24.23
46574;BME280;32299;53.366;-1.544;2022-09-01T13:38:10;99502.90;;;29.43;22.34
46574;BME280;32299;53.366;-1.544;2022-09-01T13:40:37;99500.41;;;29.47;22.86
46574;BME280;32299;53.366;-1.544;2022-09-01T13:43:04;99501.58;;;26.10;24.45
46574;BME280;32299;53.366;-1.544;2022-09-01T13:45:31;99496.44;;;27.73;24.06
46574;BME280;32299;53.366;-1.544;2022-09-01T13:47:57;99490.96;;;29.37;24.71
46574;BME280;32299;53.366;-1.544;2022-09-01T13:50:25;99486.07;;;29.09;24.43
46574;BME280;32299;53.366;-1.544;2022-09-01T13:52:54;99479.51;;;30.11;23.18
46574;BME280;32299;53.366;-1.544;2022-09-01T13:55:25;99481.75;;;30.94;22.09
46574;BME280;32299;53.366;-1.544;2022-09-01T13:57:53;99481.66;;;30.56;22.15
46574;BME280;32299;53.366;-1.544;2022-09-01T14:00:23;99472.77;;;31.09;22.47
46574;BME280;32299;53.366;-1.544;2022-09-01T14:02:53;99467.30;;;31.51;22.91
46574;BME280;32299;53.366;-1.544;2022-09-01T14:05:22;99465.58;;;29.89;20.81
46574;BME280;32299;53.366;-1.544;2022-09-01T14:07:50;99471.86;;;31.44;23.54
46574;BME280;32299;53.366;-1.544;2022-09-01T14:10:18;99477.15;;;31.23;22.65